Terminal Aerodrome Forecast
Issued by NWS

Home | Current Version | Previous Version | Text Only | Print | Product List | Glossary On
Versions: 1 2 3 4 5 6 7 8 9 10 11 12 13 14 15
000
FTUS42 TJSJ 282114 AAA
TAFIST
TAF AMD
TIST 282114Z 2821/2918 08012KT P6SM VCSH SCT025 SCT050
      TEMPO 2821/2822 4SM SHRA BKN025
     FM282300 09008KT P6SM VCSH SCT025 SCT060
     FM291300 12012KT P6SM VCSH SCT030 BKN080=

USA.gov is the U.S. government's official web portal to all federal, state and local government web resources and services.